sensor_id;sensor_type;location;lat;lon;timestamp;temperature;humidity
10010;DHT22;5044;48.652;9.250;2023-02-28T00:00:11;-3.20;93.10
10010;DHT22;5044;48.652;9.250;2023-02-28T00:02:39;-3.20;93.40
10010;DHT22;5044;48.652;9.250;2023-02-28T00:05:07;-3.20;93.20
10010;DHT22;5044;48.652;9.250;2023-02-28T00:07:36;-3.20;93.40
10010;DHT22;5044;48.652;9.250;2023-02-28T00:10:05;-3.20;93.30
10010;DHT22;5044;48.652;9.250;2023-02-28T00:12:33;-3.20;93.80
10010;DHT22;5044;48.652;9.250;2023-02-28T00:15:00;-3.20;93.80
10010;DHT22;5044;48.652;9.250;2023-02-28T00:17:28;-3.30;94.30
10010;DHT22;5044;48.652;9.250;2023-02-28T00:19:56;-3.30;94.90
10010;DHT22;5044;48.652;9.250;2023-02-28T00:22:27;-3.30;95.10
10010;DHT22;5044;48.652;9.250;2023-02-28T00:24:55;-3.40;95.40
10010;DHT22;5044;48.652;9.250;2023-02-28T00:27:22;-3.40;95.90
10010;DHT22;5044;48.652;9.250;2023-02-28T00:29:49;-3.40;95.90
10010;DHT22;5044;48.652;9.250;2023-02-28T00:32:16;-3.40;95.60
10010;DHT22;5044;48.652;9.250;2023-02-28T00:34:44;-3.40;95.60
10010;DHT22;5044;48.652;9.250;2023-02-28T00:37:11;-3.40;95.90
10010;DHT22;5044;48.652;9.250;2023-02-28T00:39:39;-3.40;96.10
10010;DHT22;5044;48.652;9.250;2023-02-28T00:42:08;-3.40;95.50
10010;DHT22;5044;48.652;9.250;2023-02-28T00:44:35;-3.50;96.00
10010;DHT22;5044;48.652;9.250;2023-02-28T00:47:01;-3.50;96.10
10010;DHT22;5044;48.652;9.250;2023-02-28T00:49:28;-3.50;96.30
10010;DHT22;5044;48.652;9.250;2023-02-28T00:51:56;-3.50;96.70
10010;DHT22;5044;48.652;9.250;2023-02-28T00:54:23;-3.50;96.80
10010;DHT22;5044;48.652;9.250;2023-02-28T00:56:50;-3.50;97.20
10010;DHT22;5044;48.652;9.250;2023-02-28T00:59:18;-3.50;97.50
10010;DHT22;5044;48.652;9.250;2023-02-28T01:01:46;-3.50;97.80
10010;DHT22;5044;48.652;9.250;2023-02-28T01:04:14;-3.50;97.90
10010;DHT22;5044;48.652;9.250;2023-02-28T01:06:41;-3.60;97.60
10010;DHT22;5044;48.652;9.250;2023-02-28T01:09:08;-3.50;98.10
10010;DHT22;5044;48.652;9.250;2023-02-28T01:11:35;-3.50;97.70
10010;DHT22;5044;48.652;9.250;2023-02-28T01:14:03;-3.50;97.80
10010;DHT22;5044;48.652;9.250;2023-02-28T01:16:31;-3.50;97.80
10010;DHT22;5044;48.652;9.250;2023-02-28T01:18:58;-3.50;97.60
10010;DHT22;5044;48.652;9.250;2023-02-28T01:21:25;-3.50;98.20
10010;DHT22;5044;48.652;9.250;2023-02-28T01:23:52;-3.60;98.30
10010;DHT22;5044;48.652;9.250;2023-02-28T01:26:25;-3.60;98.60
10010;DHT22;5044;48.652;9.250;2023-02-28T01:28:52;-3.60;99.10
10010;DHT22;5044;48.652;9.250;2023-02-28T01:31:20;-3.60;99.00
10010;DHT22;5044;48.652;9.250;2023-02-28T01:33:48;-3.60;99.10
10010;DHT22;5044;48.652;9.250;2023-02-28T01:36:18;-3.60;99.10
10010;DHT22;5044;48.652;9.250;2023-02-28T01:38:46;-3.60;98.70
10010;DHT22;5044;48.652;9.250;2023-02-28T01:41:17;-3.60;99.10
10010;DHT22;5044;48.652;9.250;2023-02-28T01:43:57;-3.60;98.90
10010;DHT22;5044;48.652;9.250;2023-02-28T01:46:24;-3.60;99.80
10010;DHT22;5044;48.652;9.250;2023-02-28T01:48:57;-3.60;99.90
10010;DHT22;5044;48.652;9.250;2023-02-28T01:51:27;-3.60;99.90
10010;DHT22;5044;48.652;9.250;2023-02-28T01:53:58;-3.60;99.90
10010;DHT22;5044;48.652;9.250;2023-02-28T01:56:29;-3.60;99.90
10010;DHT22;5044;48.652;9.250;2023-02-28T01:58:57;-3.60;99.90
10010;DHT22;5044;48.652;9.250;2023-02-28T02:01:26;-3.60;99.90
10010;DHT22;5044;48.652;9.250;2023-02-28T02:03:57;-3.60;99.90
10010;DHT22;5044;48.652;9.250;2023-02-28T02:06:26;-3.60;99.90
10010;DHT22;5044;48.652;9.250;2023-02-28T02:08:54;-3.60;99.90
10010;DHT22;5044;48.652;9.250;2023-02-28T02:11:22;-3.60;99.90
10010;DHT22;5044;48.652;9.250;2023-02-28T02:14:11;-3.60;99.90
10010;DHT22;5044;48.652;9.250;2023-02-28T02:16:50;-3.60;99.90
10010;DHT22;5044;48.652;9.250;2023-02-28T02:19:41;-3.60;99.90
10010;DHT22;5044;48.652;9.250;2023-02-28T02:22:21;-3.60;99.90
10010;DHT22;5044;48.652;9.250;2023-02-28T02:25:15;-3.60;99.90
10010;DHT22;5044;48.652;9.250;2023-02-28T02:31:23;-3.50;99.90
10010;DHT22;5044;48.652;9.250;2023-02-28T02:34:24;-3.50;99.90
10010;DHT22;5044;48.652;9.250;2023-02-28T02:37:00;-3.50;99.90
10010;DHT22;5044;48.652;9.250;2023-02-28T02:39:32;-3.50;99.90
10010;DHT22;5044;48.652;9.250;2023-02-28T02:42:06;-3.50;99.90
10010;DHT22;5044;48.652;9.250;2023-02-28T02:44:40;-3.40;99.90
10010;DHT22;5044;48.652;9.250;2023-02-28T02:47:12;-3.40;99.90
10010;DHT22;5044;48.652;9.250;2023-02-28T02:49:43;-3.40;99.90
10010;DHT22;5044;48.652;9.250;2023-02-28T02:52:15;-3.40;99.90
10010;DHT22;5044;48.652;9.250;2023-02-28T02:54:46;-3.40;99.90
10010;DHT22;5044;48.652;9.250;2023-02-28T02:57:21;-3.30;99.90
10010;DHT22;5044;48.652;9.250;2023-02-28T02:59:50;-3.30;99.90
10010;DHT22;5044;48.652;9.250;2023-02-28T03:02:20;-3.30;99.90
10010;DHT22;5044;48.652;9.250;2023-02-28T03:04:52;-3.30;99.90
10010;DHT22;5044;48.652;9.250;2023-02-28T03:07:20;-3.30;99.90
10010;DHT22;5044;48.652;9.250;2023-02-28T03:09:51;-3.30;99.90
10010;DHT22;5044;48.652;9.250;2023-02-28T03:12:19;-3.30;99.90
10010;DHT22;5044;48.652;9.250;2023-02-28T03:14:55;-3.30;99.90
10010;DHT22;5044;48.652;9.250;2023-02-28T03:17:54;-3.30;99.90
10010;DHT22;5044;48.652;9.250;2023-02-28T03:20:35;-3.30;99.90
10010;DHT22;5044;48.652;9.250;2023-02-28T03:23:13;-3.30;99.90
10010;DHT22;5044;48.652;9.250;2023-02-28T03:25:51;-3.30;99.90
10010;DHT22;5044;48.652;9.250;2023-02-28T03:28:25;-3.20;99.90
10010;DHT22;5044;48.652;9.250;2023-02-28T03:30:59;-3.20;99.90
10010;DHT22;5044;48.652;9.250;2023-02-28T03:33:29;-3.20;99.90
10010;DHT22;5044;48.652;9.250;2023-02-28T03:36:01;-3.20;99.90
10010;DHT22;5044;48.652;9.250;2023-02-28T03:38:33;-3.20;99.90
10010;DHT22;5044;48.652;9.250;2023-02-28T03:41:05;-3.20;99.90
10010;DHT22;5044;48.652;9.250;2023-02-28T03:43:33;-3.20;99.90
10010;DHT22;5044;48.652;9.250;2023-02-28T03:46:05;-3.10;99.90
10010;DHT22;5044;48.652;9.250;2023-02-28T03:48:38;-3.10;99.90
10010;DHT22;5044;48.652;9.250;2023-02-28T03:51:09;-3.10;99.90
10010;DHT22;5044;48.652;9.250;2023-02-28T03:53:39;-3.10;99.90
10010;DHT22;5044;48.652;9.250;2023-02-28T03:56:14;-3.10;99.90
10010;DHT22;5044;48.652;9.250;2023-02-28T03:58:45;-3.10;99.90
10010;DHT22;5044;48.652;9.250;2023-02-28T04:01:15;-3.10;99.90
10010;DHT22;5044;48.652;9.250;2023-02-28T04:03:44;-3.10;99.90
10010;DHT22;5044;48.652;9.250;2023-02-28T04:06:16;-3.10;99.90
10010;DHT22;5044;48.652;9.250;2023-02-28T04:08:44;-3.00;99.90
10010;DHT22;5044;48.652;9.250;2023-02-28T04:11:18;-3.00;99.90
10010;DHT22;5044;48.652;9.250;2023-02-28T04:13:46;-3.00;99.90
10010;DHT22;5044;48.652;9.250;2023-02-28T04:16:14;-3.00;99.90
10010;DHT22;5044;48.652;9.250;2023-02-28T04:18:41;-3.00;99.90
10010;DHT22;5044;48.652;9.250;2023-02-28T04:21:09;-3.00;99.90
10010;DHT22;5044;48.652;9.250;2023-02-28T04:23:38;-3.00;99.90
10010;DHT22;5044;48.652;9.250;2023-02-28T04:26:07;-3.00;99.90
10010;DHT22;5044;48.652;9.250;2023-02-28T04:28:36;-3.00;99.90
10010;DHT22;5044;48.652;9.250;2023-02-28T04:31:04;-3.00;99.90
10010;DHT22;5044;48.652;9.250;2023-02-28T04:33:32;-2.90;99.90
10010;DHT22;5044;48.652;9.250;2023-02-28T04:36:00;-2.90;99.90
10010;DHT22;5044;48.652;9.250;2023-02-28T04:38:28;-2.90;99.90
10010;DHT22;5044;48.652;9.250;2023-02-28T04:40:58;-2.90;99.90
10010;DHT22;5044;48.652;9.250;2023-02-28T04:43:26;-2.90;99.90
10010;DHT22;5044;48.652;9.250;2023-02-28T04:45:53;-2.90;99.90
10010;DHT22;5044;48.652;9.250;2023-02-28T04:48:22;-2.90;99.90
10010;DHT22;5044;48.652;9.250;2023-02-28T04:50:51;-2.90;99.90
10010;DHT22;5044;48.652;9.250;2023-02-28T04:53:18;-2.80;99.90
10010;DHT22;5044;48.652;9.250;2023-02-28T04:55:45;-2.80;99.90
10010;DHT22;5044;48.652;9.250;2023-02-28T04:58:14;-2.80;99.90
10010;DHT22;5044;48.652;9.250;2023-02-28T05:00:41;-2.80;99.90
10010;DHT22;5044;48.652;9.250;2023-02-28T05:03:08;-2.80;99.90
10010;DHT22;5044;48.652;9.250;2023-02-28T05:05:35;-2.80;99.90
10010;DHT22;5044;48.652;9.250;2023-02-28T05:08:02;-2.80;99.90
10010;DHT22;5044;48.652;9.250;2023-02-28T05:10:30;-2.80;99.90
10010;DHT22;5044;48.652;9.250;2023-02-28T05:12:57;-2.80;99.90
10010;DHT22;5044;48.652;9.250;2023-02-28T05:15:26;-2.80;99.90
10010;DHT22;5044;48.652;9.250;2023-02-28T05:17:53;-2.70;99.90
10010;DHT22;5044;48.652;9.250;2023-02-28T05:20:20;-2.70;99.90
10010;DHT22;5044;48.652;9.250;2023-02-28T05:22:49;-2.80;99.90
10010;DHT22;5044;48.652;9.250;2023-02-28T05:25:18;-2.70;99.90
10010;DHT22;5044;48.652;9.250;2023-02-28T05:27:45;-2.70;99.90
10010;DHT22;5044;48.652;9.250;2023-02-28T05:30:12;-2.70;99.90
10010;DHT22;5044;48.652;9.250;2023-02-28T05:32:41;-2.70;99.90
10010;DHT22;5044;48.652;9.250;2023-02-28T05:35:10;-2.70;99.90
10010;DHT22;5044;48.652;9.250;2023-02-28T05:37:38;-2.70;99.90
10010;DHT22;5044;48.652;9.250;2023-02-28T05:40:06;-2.20;99.90
10010;DHT22;5044;48.652;9.250;2023-02-28T05:42:35;-2.70;99.90
10010;DHT22;5044;48.652;9.250;2023-02-28T05:45:03;-2.70;99.90
10010;DHT22;5044;48.652;9.250;2023-02-28T05:47:30;-2.70;99.90
10010;DHT22;5044;48.652;9.250;2023-02-28T05:49:59;-2.70;99.90
10010;DHT22;5044;48.652;9.250;2023-02-28T05:52:26;-2.70;99.90
10010;DHT22;5044;48.652;9.250;2023-02-28T05:54:53;-2.70;99.90
10010;DHT22;5044;48.652;9.250;2023-02-28T05:57:20;-2.60;99.90
10010;DHT22;5044;48.652;9.250;2023-02-28T05:59:47;-2.70;99.90
10010;DHT22;5044;48.652;9.250;2023-02-28T06:02:16;-2.60;99.90
10010;DHT22;5044;48.652;9.250;2023-02-28T06:04:44;-2.70;99.90
10010;DHT22;5044;48.652;9.250;2023-02-28T06:07:12;-2.60;99.90
10010;DHT22;5044;48.652;9.250;2023-02-28T06:09:39;-2.60;99.90
10010;DHT22;5044;48.652;9.250;2023-02-28T06:12:06;-2.60;99.90
10010;DHT22;5044;48.652;9.250;2023-02-28T06:14:35;-2.60;99.90
10010;DHT22;5044;48.652;9.250;2023-02-28T06:17:03;-2.60;99.90
10010;DHT22;5044;48.652;9.250;2023-02-28T06:19:30;-2.60;99.90
10010;DHT22;5044;48.652;9.250;2023-02-28T06:21:57;-2.60;99.90
10010;DHT22;5044;48.652;9.250;2023-02-28T06:24:27;-2.50;99.90
10010;DHT22;5044;48.652;9.250;2023-02-28T06:27:05;-2.60;99.90
10010;DHT22;5044;48.652;9.250;2023-02-28T06:29:33;-2.60;99.90
10010;DHT22;5044;48.652;9.250;2023-02-28T06:32:01;-2.60;99.90
10010;DHT22;5044;48.652;9.250;2023-02-28T06:34:28;-2.60;99.90
10010;DHT22;5044;48.652;9.250;2023-02-28T06:36:55;-2.50;99.90
10010;DHT22;5044;48.652;9.250;2023-02-28T06:39:22;-2.50;99.90
10010;DHT22;5044;48.652;9.250;2023-02-28T06:41:50;-2.50;99.90
10010;DHT22;5044;48.652;9.250;2023-02-28T06:44:18;-2.50;99.90
10010;DHT22;5044;48.652;9.250;2023-02-28T06:46:48;-2.50;99.90
10010;DHT22;5044;48.652;9.250;2023-02-28T06:49:16;-2.40;99.90
10010;DHT22;5044;48.652;9.250;2023-02-28T06:51:44;-2.40;99.90
10010;DHT22;5044;48.652;9.250;2023-02-28T06:54:12;-2.40;99.70
10010;DHT22;5044;48.652;9.250;2023-02-28T06:56:39;-2.40;99.90
10010;DHT22;5044;48.652;9.250;2023-02-28T06:59:07;-2.40;99.70
10010;DHT22;5044;48.652;9.250;2023-02-28T07:01:34;-2.40;99.90
10010;DHT22;5044;48.652;9.250;2023-02-28T07:04:01;-2.30;99.90
10010;DHT22;5044;48.652;9.250;2023-02-28T07:06:28;-2.30;99.90
10010;DHT22;5044;48.652;9.250;2023-02-28T07:08:55;-2.30;98.80
10010;DHT22;5044;48.652;9.250;2023-02-28T07:11:25;-2.30;99.60
10010;DHT22;5044;48.652;9.250;2023-02-28T07:13:55;-2.30;99.90
10010;DHT22;5044;48.652;9.250;2023-02-28T07:16:24;-2.30;99.90
10010;DHT22;5044;48.652;9.250;2023-02-28T07:18:52;-2.20;99.60
10010;DHT22;5044;48.652;9.250;2023-02-28T07:21:20;-2.20;99.90
10010;DHT22;5044;48.652;9.250;2023-02-28T07:23:47;-2.20;99.90
10010;DHT22;5044;48.652;9.250;2023-02-28T07:26:17;-2.20;99.50
10010;DHT22;5044;48.652;9.250;2023-02-28T07:28:46;-2.20;99.50
10010;DHT22;5044;48.652;9.250;2023-02-28T07:31:17;-2.20;99.90
10010;DHT22;5044;48.652;9.250;2023-02-28T07:33:46;-2.10;99.90
10010;DHT22;5044;48.652;9.250;2023-02-28T07:36:14;-2.10;98.80
10010;DHT22;5044;48.652;9.250;2023-02-28T07:38:45;-2.10;98.20
10010;DHT22;5044;48.652;9.250;2023-02-28T07:41:14;-2.10;98.30
10010;DHT22;5044;48.652;9.250;2023-02-28T07:43:41;-2.10;99.20
10010;DHT22;5044;48.652;9.250;2023-02-28T07:46:09;-2.00;99.10
10010;DHT22;5044;48.652;9.250;2023-02-28T07:48:36;-2.00;98.90
10010;DHT22;5044;48.652;9.250;2023-02-28T07:51:05;-2.00;98.80
10010;DHT22;5044;48.652;9.250;2023-02-28T07:53:32;-2.00;97.90
10010;DHT22;5044;48.652;9.250;2023-02-28T07:56:00;-2.00;98.10
10010;DHT22;5044;48.652;9.250;2023-02-28T07:58:28;-1.90;98.00
10010;DHT22;5044;48.652;9.250;2023-02-28T08:00:56;-1.90;97.60
10010;DHT22;5044;48.652;9.250;2023-02-28T08:03:24;-1.50;97.30
10010;DHT22;5044;48.652;9.250;2023-02-28T08:05:51;-1.80;97.60
10010;DHT22;5044;48.652;9.250;2023-02-28T08:08:20;-1.80;96.90
10010;DHT22;5044;48.652;9.250;2023-02-28T08:10:47;-1.80;97.10
10010;DHT22;5044;48.652;9.250;2023-02-28T08:13:14;-1.80;97.20
10010;DHT22;5044;48.652;9.250;2023-02-28T08:15:42;-1.70;97.00
10010;DHT22;5044;48.652;9.250;2023-02-28T08:18:10;-1.70;96.90
10010;DHT22;5044;48.652;9.250;2023-02-28T08:20:37;-1.60;96.80
10010;DHT22;5044;48.652;9.250;2023-02-28T08:23:04;-1.60;96.20
10010;DHT22;5044;48.652;9.250;2023-02-28T08:25:32;-1.60;96.40
10010;DHT22;5044;48.652;9.250;2023-02-28T08:27:59;-1.50;96.30
10010;DHT22;5044;48.652;9.250;2023-02-28T08:30:26;-1.50;95.60
10010;DHT22;5044;48.652;9.250;2023-02-28T08:32:53;-1.50;96.20
10010;DHT22;5044;48.652;9.250;2023-02-28T08:35:20;-1.40;95.50
10010;DHT22;5044;48.652;9.250;2023-02-28T08:37:48;-1.40;95.10
10010;DHT22;5044;48.652;9.250;2023-02-28T08:40:15;-1.30;94.80
10010;DHT22;5044;48.652;9.250;2023-02-28T08:42:45;-1.30;95.20
10010;DHT22;5044;48.652;9.250;2023-02-28T08:45:12;-1.20;94.40
10010;DHT22;5044;48.652;9.250;2023-02-28T08:47:40;-0.90;94.30
10010;DHT22;5044;48.652;9.250;2023-02-28T08:50:08;-1.10;94.10
10010;DHT22;5044;48.652;9.250;2023-02-28T08:52:35;-1.10;93.80
10010;DHT22;5044;48.652;9.250;2023-02-28T08:55:04;-1.00;93.90
10010;DHT22;5044;48.652;9.250;2023-02-28T08:57:31;-1.00;93.20
10010;DHT22;5044;48.652;9.250;2023-02-28T09:00:00;-1.00;93.00
10010;DHT22;5044;48.652;9.250;2023-02-28T09:02:29;-0.90;93.70
10010;DHT22;5044;48.652;9.250;2023-02-28T09:04:56;-0.80;93.10
10010;DHT22;5044;48.652;9.250;2023-02-28T09:07:23;-0.80;91.90
10010;DHT22;5044;48.652;9.250;2023-02-28T09:09:50;-0.80;92.20
10010;DHT22;5044;48.652;9.250;2023-02-28T09:12:20;-0.80;92.00
10010;DHT22;5044;48.652;9.250;2023-02-28T09:14:47;-0.80;92.00
10010;DHT22;5044;48.652;9.250;2023-02-28T09:17:16;-0.40;93.40
10010;DHT22;5044;48.652;9.250;2023-02-28T09:19:44;-0.60;93.40
10010;DHT22;5044;48.652;9.250;2023-02-28T09:22:11;-0.50;92.50
10010;DHT22;5044;48.652;9.250;2023-02-28T09:24:38;-0.50;91.90
10010;DHT22;5044;48.652;9.250;2023-02-28T09:27:05;-0.40;91.20
10010;DHT22;5044;48.652;9.250;2023-02-28T09:29:33;-0.40;91.30
10010;DHT22;5044;48.652;9.250;2023-02-28T09:32:01;-0.40;91.00
10010;DHT22;5044;48.652;9.250;2023-02-28T09:34:29;-0.30;90.00
10010;DHT22;5044;48.652;9.250;2023-02-28T09:36:56;-0.30;90.10
10010;DHT22;5044;48.652;9.250;2023-02-28T09:39:24;-0.20;90.00
10010;DHT22;5044;48.652;9.250;2023-02-28T09:41:52;-0.20;89.10
10010;DHT22;5044;48.652;9.250;2023-02-28T09:44:25;-0.10;89.00
10010;DHT22;5044;48.652;9.250;2023-02-28T09:46:57;-0.10;88.50
10010;DHT22;5044;48.652;9.250;2023-02-28T09:49:34;-0.10;86.50
10010;DHT22;5044;48.652;9.250;2023-02-28T09:52:06;0.00;87.50
10010;DHT22;5044;48.652;9.250;2023-02-28T09:54:35;0.10;88.90
10010;DHT22;5044;48.652;9.250;2023-02-28T09:57:07;1.00;87.90
10010;DHT22;5044;48.652;9.250;2023-02-28T09:59:44;0.20;86.40
10010;DHT22;5044;48.652;9.250;2023-02-28T10:02:34;0.20;83.80
10010;DHT22;5044;48.652;9.250;2023-02-28T10:05:09;0.40;85.80
10010;DHT22;5044;48.652;9.250;2023-02-28T10:07:53;0.40;83.60
10010;DHT22;5044;48.652;9.250;2023-02-28T10:10:27;0.50;85.40
10010;DHT22;5044;48.652;9.250;2023-02-28T10:12:58;0.40;83.20
10010;DHT22;5044;48.652;9.250;2023-02-28T10:15:29;0.40;83.40
10010;DHT22;5044;48.652;9.250;2023-02-28T10:17:58;0.60;84.30
10010;DHT22;5044;48.652;9.250;2023-02-28T10:20:30;0.60;83.20
10010;DHT22;5044;48.652;9.250;2023-02-28T10:23:04;0.70;81.30
10010;DHT22;5044;48.652;9.250;2023-02-28T10:25:34;0.70;78.10
10010;DHT22;5044;48.652;9.250;2023-02-28T10:28:10;1.10;81.10
10010;DHT22;5044;48.652;9.250;2023-02-28T10:30:40;0.80;80.80
10010;DHT22;5044;48.652;9.250;2023-02-28T10:33:17;0.80;81.50
10010;DHT22;5044;48.652;9.250;2023-02-28T10:35:47;1.00;80.80
10010;DHT22;5044;48.652;9.250;2023-02-28T10:38:16;1.00;77.20
10010;DHT22;5044;48.652;9.250;2023-02-28T10:40:44;1.10;80.00
10010;DHT22;5044;48.652;9.250;2023-02-28T10:43:22;1.30;77.80
10010;DHT22;5044;48.652;9.250;2023-02-28T10:45:57;1.30;76.90
10010;DHT22;5044;48.652;9.250;2023-02-28T10:48:32;1.30;77.50
10010;DHT22;5044;48.652;9.250;2023-02-28T10:51:01;1.60;79.70
10010;DHT22;5044;48.652;9.250;2023-02-28T10:53:32;1.80;74.70
10010;DHT22;5044;48.652;9.250;2023-02-28T10:56:02;2.10;77.10
10010;DHT22;5044;48.652;9.250;2023-02-28T10:58:33;2.30;75.40
10010;DHT22;5044;48.652;9.250;2023-02-28T11:01:13;2.50;70.90
10010;DHT22;5044;48.652;9.250;2023-02-28T11:03:41;2.90;72.90
10010;DHT22;5044;48.652;9.250;2023-02-28T11:06:16;2.90;70.90
10010;DHT22;5044;48.652;9.250;2023-02-28T11:08:50;3.20;69.40
10010;DHT22;5044;48.652;9.250;2023-02-28T11:11:18;3.50;68.30
10010;DHT22;5044;48.652;9.250;2023-02-28T11:13:47;3.50;65.00
10010;DHT22;5044;48.652;9.250;2023-02-28T11:16:16;3.70;68.00
10010;DHT22;5044;48.652;9.250;2023-02-28T11:18:46;3.50;65.70
10010;DHT22;5044;48.652;9.250;2023-02-28T11:21:22;3.50;65.60
10010;DHT22;5044;48.652;9.250;2023-02-28T11:23:52;3.60;66.90
10010;DHT22;5044;48.652;9.250;2023-02-28T11:26:41;4.10;67.10
10010;DHT22;5044;48.652;9.250;2023-02-28T11:29:12;4.40;64.90
10010;DHT22;5044;48.652;9.250;2023-02-28T11:31:42;4.20;63.90
10010;DHT22;5044;48.652;9.250;2023-02-28T11:34:26;4.80;63.90
10010;DHT22;5044;48.652;9.250;2023-02-28T11:36:56;4.40;63.40
10010;DHT22;5044;48.652;9.250;2023-02-28T11:39:25;4.50;66.10
10010;DHT22;5044;48.652;9.250;2023-02-28T11:44:57;4.70;62.20
10010;DHT22;5044;48.652;9.250;2023-02-28T11:47:33;4.80;62.00
10010;DHT22;5044;48.652;9.250;2023-02-28T11:50:14;4.90;64.50
10010;DHT22;5044;48.652;9.250;2023-02-28T11:52:50;5.20;64.50
10010;DHT22;5044;48.652;9.250;2023-02-28T11:55:24;5.10;62.50
10010;DHT22;5044;48.652;9.250;2023-02-28T11:58:14;5.20;61.60
10010;DHT22;5044;48.652;9.250;2023-02-28T12:01:03;5.20;62.70
10010;DHT22;5044;48.652;9.250;2023-02-28T12:03:43;5.70;64.10
10010;DHT22;5044;48.652;9.250;2023-02-28T12:06:18;5.80;60.20
10010;DHT22;5044;48.652;9.250;2023-02-28T12:09:00;6.10;61.20
10010;DHT22;5044;48.652;9.250;2023-02-28T12:11:40;6.50;60.80
10010;DHT22;5044;48.652;9.250;2023-02-28T12:17:15;6.40;59.10
10010;DHT22;5044;48.652;9.250;2023-02-28T12:19:50;6.50;58.30
10010;DHT22;5044;48.652;9.250;2023-02-28T12:22:32;6.10;58.00
10010;DHT22;5044;48.652;9.250;2023-02-28T12:25:44;6.20;60.30
10010;DHT22;5044;48.652;9.250;2023-02-28T12:28:16;6.10;59.10
10010;DHT22;5044;48.652;9.250;2023-02-28T12:30:49;6.60;60.20
10010;DHT22;5044;48.652;9.250;2023-02-28T12:33:20;6.90;59.70
10010;DHT22;5044;48.652;9.250;2023-02-28T12:35:51;7.00;58.70
10010;DHT22;5044;48.652;9.250;2023-02-28T12:38:23;7.10;58.20
10010;DHT22;5044;48.652;9.250;2023-02-28T12:41:00;7.30;59.20
10010;DHT22;5044;48.652;9.250;2023-02-28T12:43:32;7.50;58.50
10010;DHT22;5044;48.652;9.250;2023-02-28T12:46:03;7.60;57.90
10010;DHT22;5044;48.652;9.250;2023-02-28T12:48:38;7.60;57.00
10010;DHT22;5044;48.652;9.250;2023-02-28T12:51:07;7.70;56.20
10010;DHT22;5044;48.652;9.250;2023-02-28T12:53:44;7.60;56.50
10010;DHT22;5044;48.652;9.250;2023-02-28T12:56:17;7.60;55.70
10010;DHT22;5044;48.652;9.250;2023-02-28T12:58:49;7.80;55.60
10010;DHT22;5044;48.652;9.250;2023-02-28T13:01:35;7.90;54.80
10010;DHT22;5044;48.652;9.250;2023-02-28T13:04:29;7.60;54.10
10010;DHT22;5044;48.652;9.250;2023-02-28T13:07:12;8.20;57.10
10010;DHT22;5044;48.652;9.250;2023-02-28T13:09:52;8.50;55.90
10010;DHT22;5044;48.652;9.250;2023-02-28T13:12:20;8.70;56.50
10010;DHT22;5044;48.652;9.250;2023-02-28T13:14:48;8.80;56.10
10010;DHT22;5044;48.652;9.250;2023-02-28T13:17:19;9.30;57.10
10010;DHT22;5044;48.652;9.250;2023-02-28T13:19:56;9.10;55.20
10010;DHT22;5044;48.652;9.250;2023-02-28T13:22:38;9.30;56.30
10010;DHT22;5044;48.652;9.250;2023-02-28T13:31:31;9.20;53.90
10010;DHT22;5044;48.652;9.250;2023-02-28T13:34:15;8.10;51.20
10010;DHT22;5044;48.652;9.250;2023-02-28T13:36:42;7.40;51.10
10010;DHT22;5044;48.652;9.250;2023-02-28T13:39:47;8.40;56.30
10010;DHT22;5044;48.652;9.250;2023-02-28T13:42:34;9.00;56.00
10010;DHT22;5044;48.652;9.250;2023-02-28T13:45:23;8.20;51.90
10010;DHT22;5044;48.652;9.250;2023-02-28T13:48:00;8.00;52.10
10010;DHT22;5044;48.652;9.250;2023-02-28T13:50:31;8.10;52.20
10010;DHT22;5044;48.652;9.250;2023-02-28T13:53:27;7.70;51.40
10010;DHT22;5044;48.652;9.250;2023-02-28T13:56:03;8.20;53.80
10010;DHT22;5044;48.652;9.250;2023-02-28T13:58:41;8.60;54.40
10010;DHT22;5044;48.652;9.250;2023-02-28T14:01:24;9.00;54.60
10010;DHT22;5044;48.652;9.250;2023-02-28T14:04:09;8.60;52.40
10010;DHT22;5044;48.652;9.250;2023-02-28T14:06:47;8.40;51.50
10010;DHT22;5044;48.652;9.250;2023-02-28T14:09:21;8.20;51.40
10010;DHT22;5044;48.652;9.250;2023-02-28T14:11:50;8.30;52.00
10010;DHT22;5044;48.652;9.250;2023-02-28T14:14:54;9.00;54.90
10010;DHT22;5044;48.652;9.250;2023-02-28T14:17:22;9.10;53.60
10010;DHT22;5044;48.652;9.250;2023-02-28T14:19:51;9.40;54.10
10010;DHT22;5044;48.652;9.250;2023-02-28T14:25:18;8.60;50.70
10010;DHT22;5044;48.652;9.250;2023-02-28T14:27:58;9.20;54.20
10010;DHT22;5044;48.652;9.250;2023-02-28T14:30:49;8.90;51.30
10010;DHT22;5044;48.652;9.250;2023-02-28T14:33:31;9.00;52.10
10010;DHT22;5044;48.652;9.250;2023-02-28T14:36:07;9.40;53.90
10010;DHT22;5044;48.652;9.250;2023-02-28T14:38:39;9.90;56.50
10010;DHT22;5044;48.652;9.250;2023-02-28T14:41:16;10.10;54.60
10010;DHT22;5044;48.652;9.250;2023-02-28T14:43:53;10.20;54.00
10010;DHT22;5044;48.652;9.250;2023-02-28T14:46:22;10.20;53.70
10010;DHT22;5044;48.652;9.250;2023-02-28T14:48:50;9.90;53.30
10010;DHT22;5044;48.652;9.250;2023-02-28T14:51:22;9.60;51.10
10010;DHT22;5044;48.652;9.250;2023-02-28T14:53:55;10.00;53.40
10010;DHT22;5044;48.652;9.250;2023-02-28T14:56:24;10.20;53.40
10010;DHT22;5044;48.652;9.250;2023-02-28T14:58:54;9.90;53.60
10010;DHT22;5044;48.652;9.250;2023-02-28T15:01:23;10.00;53.40
10010;DHT22;5044;48.652;9.250;2023-02-28T15:03:58;9.90;53.90
10010;DHT22;5044;48.652;9.250;2023-02-28T15:06:28;9.70;54.00
10010;DHT22;5044;48.652;9.250;2023-02-28T15:09:14;9.60;52.60
10010;DHT22;5044;48.652;9.250;2023-02-28T15:11:46;9.60;53.50
10010;DHT22;5044;48.652;9.250;2023-02-28T15:14:17;9.30;53.10
10010;DHT22;5044;48.652;9.250;2023-02-28T15:16:45;9.40;54.20
10010;DHT22;5044;48.652;9.250;2023-02-28T15:19:17;9.00;53.20
10010;DHT22;5044;48.652;9.250;2023-02-28T15:21:51;9.20;55.30
10010;DHT22;5044;48.652;9.250;2023-02-28T15:24:19;8.90;54.00
10010;DHT22;5044;48.652;9.250;2023-02-28T15:26:53;8.90;54.30
10010;DHT22;5044;48.652;9.250;2023-02-28T15:29:22;8.60;53.30
10010;DHT22;5044;48.652;9.250;2023-02-28T15:31:51;8.50;53.80
10010;DHT22;5044;48.652;9.250;2023-02-28T15:34:27;8.10;53.80
10010;DHT22;5044;48.652;9.250;2023-02-28T15:36:56;8.10;54.80
10010;DHT22;5044;48.652;9.250;2023-02-28T15:39:25;8.10;55.20
10010;DHT22;5044;48.652;9.250;2023-02-28T15:42:09;8.00;55.10
10010;DHT22;5044;48.652;9.250;2023-02-28T15:44:36;7.80;55.40
10010;DHT22;5044;48.652;9.250;2023-02-28T15:47:05;7.60;55.20
10010;DHT22;5044;48.652;9.250;2023-02-28T15:49:39;7.40;55.20
10010;DHT22;5044;48.652;9.250;2023-02-28T15:52:13;7.30;55.50
10010;DHT22;5044;48.652;9.250;2023-02-28T15:54:41;7.20;55.60
10010;DHT22;5044;48.652;9.250;2023-02-28T15:57:13;7.10;55.60
10010;DHT22;5044;48.652;9.250;2023-02-28T15:59:42;6.80;55.40
10010;DHT22;5044;48.652;9.250;2023-02-28T16:02:17;6.70;55.80
10010;DHT22;5044;48.652;9.250;2023-02-28T16:04:59;6.60;55.70
10010;DHT22;5044;48.652;9.250;2023-02-28T16:07:28;6.50;56.60
10010;DHT22;5044;48.652;9.250;2023-02-28T16:09:55;6.60;58.00
10010;DHT22;5044;48.652;9.250;2023-02-28T16:12:26;6.70;58.60
10010;DHT22;5044;48.652;9.250;2023-02-28T16:14:54;6.40;57.40
10010;DHT22;5044;48.652;9.250;2023-02-28T16:17:23;6.20;58.20
10010;DHT22;5044;48.652;9.250;2023-02-28T16:19:51;6.10;58.40
10010;DHT22;5044;48.652;9.250;2023-02-28T16:22:18;6.00;59.40
10010;DHT22;5044;48.652;9.250;2023-02-28T16:24:46;6.10;59.10
10010;DHT22;5044;48.652;9.250;2023-02-28T16:27:18;6.20;60.50
10010;DHT22;5044;48.652;9.250;2023-02-28T16:29:45;6.20;60.80
10010;DHT22;5044;48.652;9.250;2023-02-28T16:32:14;5.90;59.50
10010;DHT22;5044;48.652;9.250;2023-02-28T16:34:42;5.80;58.80
10010;DHT22;5044;48.652;9.250;2023-02-28T16:37:14;5.80;61.90